sensor_id;sensor_type;location;lat;lon;timestamp;pressure;altitude;pressure_sealevel;temperature;humidity
54038;BME280;39954;48.844;9.726;2022-09-09T12:39:33;95855.16;;;14.50;100.00
54038;BME280;39954;48.844;9.726;2022-09-09T12:40:54;95855.69;;;14.67;100.00
54038;BME280;39954;48.844;9.726;2022-09-09T12:42:16;95858.31;;;15.00;100.00
54038;BME280;39954;48.844;9.726;2022-09-09T12:43:20;95849.19;;;15.72;100.00
54038;BME280;39954;48.844;9.726;2022-09-09T12:44:26;95836.81;;;16.58;100.00
54038;BME280;39954;48.844;9.726;2022-09-09T12:45:31;95844.56;;;17.31;100.00
54038;BME280;39954;48.844;9.726;2022-09-09T12:46:39;95834.69;;;17.54;100.00
54038;BME280;39954;48.844;9.726;2022-09-09T12:47:45;95836.91;;;17.68;100.00
54038;BME280;39954;48.844;9.726;2022-09-09T12:48:53;95835.56;;;18.32;100.00
54038;BME280;39954;48.844;9.726;2022-09-09T12:49:56;95824.81;;;18.82;100.00
54038;BME280;39954;48.844;9.726;2022-09-09T12:51:01;95822.31;;;19.08;100.00
54038;BME280;39954;48.844;9.726;2022-09-09T12:52:06;95820.03;;;19.23;100.00
54038;BME280;39954;48.844;9.726;2022-09-09T12:53:17;95815.75;;;19.22;100.00
54038;BME280;39954;48.844;9.726;2022-09-09T12:54:27;95821.03;;;19.85;98.52
54038;BME280;39954;48.844;9.726;2022-09-09T12:55:36;95811.22;;;20.58;96.45
54038;BME280;39954;48.844;9.726;2022-09-09T12:56:45;95813.72;;;21.28;88.78
54038;BME280;39954;48.844;9.726;2022-09-09T12:57:51;95810.94;;;22.37;75.35
54038;BME280;39954;48.844;9.726;2022-09-09T12:58:58;95808.03;;;22.88;67.01
54038;BME280;39954;48.844;9.726;2022-09-09T13:00:05;95809.19;;;23.41;65.87
54038;BME280;39954;48.844;9.726;2022-09-09T13:01:21;95811.56;;;23.36;60.19
54038;BME280;39954;48.844;9.726;2022-09-09T13:02:27;95807.84;;;24.22;57.43
54038;BME280;39954;48.844;9.726;2022-09-09T13:03:30;95810.75;;;24.73;55.26
54038;BME280;39954;48.844;9.726;2022-09-09T13:04:35;95803.59;;;24.89;54.63
54038;BME280;39954;48.844;9.726;2022-09-09T13:05:38;95805.81;;;24.70;53.71
54038;BME280;39954;48.844;9.726;2022-09-09T13:06:43;95809.97;;;25.68;50.61
54038;BME280;39954;48.844;9.726;2022-09-09T13:07:45;95807.97;;;24.52;50.58
54038;BME280;39954;48.844;9.726;2022-09-09T13:08:50;95802.34;;;25.29;49.24
54038;BME280;39954;48.844;9.726;2022-09-09T13:09:53;95807.09;;;26.06;49.90
54038;BME280;39954;48.844;9.726;2022-09-09T13:11:02;95797.69;;;25.16;53.50
54038;BME280;39954;48.844;9.726;2022-09-09T13:12:13;95796.97;;;25.95;47.66
54038;BME280;39954;48.844;9.726;2022-09-09T13:13:19;95786.22;;;27.16;45.91
54038;BME280;39954;48.844;9.726;2022-09-09T13:14:28;95781.97;;;27.89;45.71
54038;BME280;39954;48.844;9.726;2022-09-09T13:15:32;95779.97;;;27.98;42.40
54038;BME280;39954;48.844;9.726;2022-09-09T13:16:39;95784.22;;;27.79;45.95
54038;BME280;39954;48.844;9.726;2022-09-09T13:17:50;95781.63;;;27.44;44.70
54038;BME280;39954;48.844;9.726;2022-09-09T13:18:55;95789.97;;;27.89;41.53
54038;BME280;39954;48.844;9.726;2022-09-09T13:19:57;95788.75;;;27.85;42.11
54038;BME280;39954;48.844;9.726;2022-09-09T13:21:02;95786.25;;;27.77;42.10
54038;BME280;39954;48.844;9.726;2022-09-09T13:22:11;95782.88;;;28.63;43.83
54038;BME280;39954;48.844;9.726;2022-09-09T13:23:18;95793.59;;;26.51;41.91
54038;BME280;39954;48.844;9.726;2022-09-09T13:24:30;95798.13;;;25.35;42.67
54038;BME280;39954;48.844;9.726;2022-09-09T13:25:34;95781.84;;;26.73;42.29
54038;BME280;39954;48.844;9.726;2022-09-09T13:26:54;95779.06;;;26.88;42.10
54038;BME280;39954;48.844;9.726;2022-09-09T13:28:00;95783.00;;;27.27;41.28
54038;BME280;39954;48.844;9.726;2022-09-09T13:29:16;95776.03;;;27.87;39.63
54038;BME280;39954;48.844;9.726;2022-09-09T13:30:24;95778.75;;;28.41;38.16
54038;BME280;39954;48.844;9.726;2022-09-09T13:31:32;95782.25;;;28.74;38.81
54038;BME280;39954;48.844;9.726;2022-09-09T13:32:37;95784.69;;;28.36;39.16
54038;BME280;39954;48.844;9.726;2022-09-09T13:33:39;95786.34;;;27.42;38.50
54038;BME280;39954;48.844;9.726;2022-09-09T13:34:50;95781.88;;;26.80;40.31
54038;BME280;39954;48.844;9.726;2022-09-09T13:35:55;95784.00;;;26.35;42.32
54038;BME280;39954;48.844;9.726;2022-09-09T13:37:02;95784.34;;;25.46;47.64
54038;BME280;39954;48.844;9.726;2022-09-09T13:38:08;95779.34;;;25.79;45.28
54038;BME280;39954;48.844;9.726;2022-09-09T13:39:16;95781.31;;;26.56;44.47
54038;BME280;39954;48.844;9.726;2022-09-09T13:40:20;95773.94;;;27.76;41.82
54038;BME280;39954;48.844;9.726;2022-09-09T13:41:35;95773.59;;;27.31;40.24
54038;BME280;39954;48.844;9.726;2022-09-09T13:42:44;95766.78;;;28.03;38.58
54038;BME280;39954;48.844;9.726;2022-09-09T13:43:47;95775.03;;;28.28;38.11
54038;BME280;39954;48.844;9.726;2022-09-09T13:44:52;95764.78;;;28.59;39.52
54038;BME280;39954;48.844;9.726;2022-09-09T13:45:57;95765.16;;;28.62;37.93
54038;BME280;39954;48.844;9.726;2022-09-09T13:47:04;95778.38;;;26.23;39.99
54038;BME280;39954;48.844;9.726;2022-09-09T13:48:17;95773.22;;;25.79;41.32
54038;BME280;39954;48.844;9.726;2022-09-09T13:49:23;95773.22;;;25.42;44.62
54038;BME280;39954;48.844;9.726;2022-09-09T13:50:27;95767.88;;;24.39;49.35
54038;BME280;39954;48.844;9.726;2022-09-09T13:51:35;95771.16;;;24.78;47.88
54038;BME280;39954;48.844;9.726;2022-09-09T13:52:38;95767.44;;;26.40;44.16
54038;BME280;39954;48.844;9.726;2022-09-09T13:53:45;95770.03;;;25.47;46.21
54038;BME280;39954;48.844;9.726;2022-09-09T13:54:49;95762.78;;;27.11;41.78
54038;BME280;39954;48.844;9.726;2022-09-09T13:55:56;95758.50;;;25.61;44.43
54038;BME280;39954;48.844;9.726;2022-09-09T13:56:58;95769.31;;;25.96;42.47
54038;BME280;39954;48.844;9.726;2022-09-09T13:58:05;95762.22;;;26.25;41.19
54038;BME280;39954;48.844;9.726;2022-09-09T13:59:11;95755.09;;;27.30;39.99
54038;BME280;39954;48.844;9.726;2022-09-09T14:00:16;95757.84;;;26.45;43.08
54038;BME280;39954;48.844;9.726;2022-09-09T14:01:18;95756.66;;;25.62;43.35
54038;BME280;39954;48.844;9.726;2022-09-09T14:02:29;95763.22;;;24.41;46.39
54038;BME280;39954;48.844;9.726;2022-09-09T14:03:32;95765.16;;;23.63;52.46
54038;BME280;39954;48.844;9.726;2022-09-09T14:04:38;95767.53;;;22.63;59.51
54038;BME280;39954;48.844;9.726;2022-09-09T14:05:43;95777.69;;;21.85;60.53
54038;BME280;39954;48.844;9.726;2022-09-09T14:06:49;95770.44;;;22.28;57.91
54038;BME280;39954;48.844;9.726;2022-09-09T14:07:54;95765.28;;;21.94;63.08
54038;BME280;39954;48.844;9.726;2022-09-09T14:08:56;95767.88;;;21.45;64.03
54038;BME280;39954;48.844;9.726;2022-09-09T14:10:01;95769.53;;;21.46;65.52
54038;BME280;39954;48.844;9.726;2022-09-09T14:11:03;95770.78;;;21.17;68.17
54038;BME280;39954;48.844;9.726;2022-09-09T14:12:09;95762.94;;;21.50;60.92
54038;BME280;39954;48.844;9.726;2022-09-09T14:13:15;95768.91;;;20.67;66.23
54038;BME280;39954;48.844;9.726;2022-09-09T14:14:19;95769.66;;;20.94;64.46
54038;BME280;39954;48.844;9.726;2022-09-09T14:15:22;95765.22;;;20.94;64.54
54038;BME280;39954;48.844;9.726;2022-09-09T14:16:26;95760.97;;;20.67;63.64
54038;BME280;39954;48.844;9.726;2022-09-09T14:17:29;95752.22;;;20.67;64.94
54038;BME280;39954;48.844;9.726;2022-09-09T14:18:34;95770.31;;;20.88;63.38
54038;BME280;39954;48.844;9.726;2022-09-09T14:19:36;95767.94;;;20.76;67.58
54038;BME280;39954;48.844;9.726;2022-09-09T14:20:41;95754.06;;;20.74;64.02
54038;BME280;39954;48.844;9.726;2022-09-09T14:21:43;95761.94;;;20.66;61.78
54038;BME280;39954;48.844;9.726;2022-09-09T14:22:47;95767.09;;;20.50;63.25
54038;BME280;39954;48.844;9.726;2022-09-09T14:23:50;95761.75;;;21.44;59.94
54038;BME280;39954;48.844;9.726;2022-09-09T14:24:54;95757.03;;;21.97;56.58
54038;BME280;39954;48.844;9.726;2022-09-09T14:25:56;95759.13;;;22.51;55.55
54038;BME280;39954;48.844;9.726;2022-09-09T14:27:01;95757.16;;;22.53;52.28
54038;BME280;39954;48.844;9.726;2022-09-09T14:28:03;95745.19;;;22.65;53.28
54038;BME280;39954;48.844;9.726;2022-09-09T14:29:10;95764.34;;;22.84;50.33
54038;BME280;39954;48.844;9.726;2022-09-09T14:30:12;95752.84;;;23.08;51.55
54038;BME280;39954;48.844;9.726;2022-09-09T14:31:18;95755.34;;;23.40;52.12
54038;BME280;39954;48.844;9.726;2022-09-09T14:32:22;95755.47;;;24.16;48.12
54038;BME280;39954;48.844;9.726;2022-09-09T14:33:24;95760.00;;;23.93;52.44
54038;BME280;39954;48.844;9.726;2022-09-09T14:34:30;95755.22;;;24.49;46.36
54038;BME280;39954;48.844;9.726;2022-09-09T14:35:34;95751.91;;;24.47;46.09
54038;BME280;39954;48.844;9.726;2022-09-09T14:36:38;95755.84;;;23.67;48.87
54038;BME280;39954;48.844;9.726;2022-09-09T14:37:40;95760.06;;;23.30;49.91
54038;BME280;39954;48.844;9.726;2022-09-09T14:38:46;95760.97;;;22.42;52.31
54038;BME280;39954;48.844;9.726;2022-09-09T14:39:49;95757.19;;;22.04;55.51
54038;BME280;39954;48.844;9.726;2022-09-09T14:40:55;95758.00;;;22.37;53.12
54038;BME280;39954;48.844;9.726;2022-09-09T14:41:58;95761.16;;;22.41;55.00
54038;BME280;39954;48.844;9.726;2022-09-09T14:43:03;95752.81;;;22.60;57.99
54038;BME280;39954;48.844;9.726;2022-09-09T14:44:05;95753.66;;;23.16;52.22
54038;BME280;39954;48.844;9.726;2022-09-09T14:45:12;95749.59;;;23.60;48.40
54038;BME280;39954;48.844;9.726;2022-09-09T14:46:16;95747.97;;;24.72;49.87
54038;BME280;39954;48.844;9.726;2022-09-09T14:47:21;95753.41;;;25.23;49.43
54038;BME280;39954;48.844;9.726;2022-09-09T14:48:23;95743.28;;;26.69;40.10
54038;BME280;39954;48.844;9.726;2022-09-09T14:49:28;95746.91;;;26.96;41.23
54038;BME280;39954;48.844;9.726;2022-09-09T14:50:30;95745.25;;;27.30;38.32
54038;BME280;39954;48.844;9.726;2022-09-09T14:51:36;95751.09;;;26.49;39.91
54038;BME280;39954;48.844;9.726;2022-09-09T14:52:38;95751.38;;;24.96;43.06
54038;BME280;39954;48.844;9.726;2022-09-09T14:53:44;95746.78;;;25.19;42.66
54038;BME280;39954;48.844;9.726;2022-09-09T14:54:46;95750.19;;;24.54;45.49
54038;BME280;39954;48.844;9.726;2022-09-09T14:55:51;95746.41;;;25.59;44.16
54038;BME280;39954;48.844;9.726;2022-09-09T14:56:53;95745.66;;;25.29;43.74
54038;BME280;39954;48.844;9.726;2022-09-09T14:57:58;95740.84;;;26.46;41.86
54038;BME280;39954;48.844;9.726;2022-09-09T14:59:00;95733.59;;;27.38;39.96
54038;BME280;39954;48.844;9.726;2022-09-09T15:00:07;95732.28;;;27.88;38.71
54038;BME280;39954;48.844;9.726;2022-09-09T15:01:13;95737.66;;;27.95;36.51
54038;BME280;39954;48.844;9.726;2022-09-09T15:02:19;95734.75;;;28.76;36.33
54038;BME280;39954;48.844;9.726;2022-09-09T15:03:21;95731.31;;;26.93;39.81
54038;BME280;39954;48.844;9.726;2022-09-09T15:04:26;95732.09;;;28.23;36.34
54038;BME280;39954;48.844;9.726;2022-09-09T15:05:29;95732.53;;;25.42;39.41
54038;BME280;39954;48.844;9.726;2022-09-09T15:06:35;95746.63;;;24.76;43.52
54038;BME280;39954;48.844;9.726;2022-09-09T15:07:40;95736.59;;;26.24;40.91
54038;BME280;39954;48.844;9.726;2022-09-09T15:08:45;95741.56;;;25.84;41.93
54038;BME280;39954;48.844;9.726;2022-09-09T15:09:48;95747.50;;;24.01;45.45
54038;BME280;39954;48.844;9.726;2022-09-09T15:10:59;95743.78;;;23.87;45.57
54038;BME280;39954;48.844;9.726;2022-09-09T15:12:01;95738.78;;;23.93;48.18
54038;BME280;39954;48.844;9.726;2022-09-09T15:13:06;95738.22;;;23.20;46.65
54038;BME280;39954;48.844;9.726;2022-09-09T15:14:08;95749.69;;;23.43;46.91
54038;BME280;39954;48.844;9.726;2022-09-09T15:15:13;95749.22;;;23.09;48.48
54038;BME280;39954;48.844;9.726;2022-09-09T15:16:23;95753.38;;;22.31;51.68
54038;BME280;39954;48.844;9.726;2022-09-09T15:17:25;95748.41;;;22.44;51.81
54038;BME280;39954;48.844;9.726;2022-09-09T15:18:30;95745.94;;;22.26;52.47
54038;BME280;39954;48.844;9.726;2022-09-09T15:19:33;95750.41;;;22.26;52.69
54038;BME280;39954;48.844;9.726;2022-09-09T15:20:38;95744.47;;;21.83;54.48
54038;BME280;39954;48.844;9.726;2022-09-09T15:21:41;95742.47;;;22.01;54.42
54038;BME280;39954;48.844;9.726;2022-09-09T15:22:45;95748.75;;;22.08;53.21
54038;BME280;39954;48.844;9.726;2022-09-09T15:23:48;95754.69;;;21.53;54.91
54038;BME280;39954;48.844;9.726;2022-09-09T15:24:53;95745.44;;;21.90;55.12
54038;BME280;39954;48.844;9.726;2022-09-09T15:25:55;95746.44;;;21.97;55.80
54038;BME280;39954;48.844;9.726;2022-09-09T15:27:01;95751.91;;;21.87;61.16
54038;BME280;39954;48.844;9.726;2022-09-09T15:28:05;95745.13;;;21.68;54.66
54038;BME280;39954;48.844;9.726;2022-09-09T15:29:08;95741.31;;;21.71;52.78
54038;BME280;39954;48.844;9.726;2022-09-09T15:30:13;95735.88;;;21.97;52.92
54038;BME280;39954;48.844;9.726;2022-09-09T15:31:17;95742.94;;;22.46;51.07
54038;BME280;39954;48.844;9.726;2022-09-09T15:32:24;95726.94;;;24.18;47.22
54038;BME280;39954;48.844;9.726;2022-09-09T15:33:29;95726.06;;;24.41;43.56
54038;BME280;39954;48.844;9.726;2022-09-09T15:34:31;95720.81;;;25.79;41.77
54038;BME280;39954;48.844;9.726;2022-09-09T15:35:36;95720.38;;;26.19;39.81
54038;BME280;39954;48.844;9.726;2022-09-09T15:36:39;95721.75;;;25.86;40.05
54038;BME280;39954;48.844;9.726;2022-09-09T15:37:44;95722.22;;;25.17;42.06
54038;BME280;39954;48.844;9.726;2022-09-09T15:38:47;95723.56;;;23.86;44.03
54038;BME280;39954;48.844;9.726;2022-09-09T15:39:52;95729.78;;;23.48;44.16
54038;BME280;39954;48.844;9.726;2022-09-09T15:40:56;95727.94;;;23.79;43.91
54038;BME280;39954;48.844;9.726;2022-09-09T15:42:00;95726.22;;;23.32;44.76
54038;BME280;39954;48.844;9.726;2022-09-09T15:43:05;95722.88;;;23.38;45.15
54038;BME280;39954;48.844;9.726;2022-09-09T15:44:07;95724.63;;;23.77;46.55
54038;BME280;39954;48.844;9.726;2022-09-09T15:45:12;95719.59;;;23.59;46.77
54038;BME280;39954;48.844;9.726;2022-09-09T15:46:26;95718.75;;;24.72;43.49
54038;BME280;39954;48.844;9.726;2022-09-09T15:47:34;95721.91;;;26.06;40.62
54038;BME280;39954;48.844;9.726;2022-09-09T15:48:39;95718.16;;;25.79;39.37
54038;BME280;39954;48.844;9.726;2022-09-09T15:49:41;95721.09;;;25.63;40.21
54038;BME280;39954;48.844;9.726;2022-09-09T15:50:45;95713.22;;;25.76;36.64
54038;BME280;39954;48.844;9.726;2022-09-09T15:51:51;95715.78;;;25.63;37.14
54038;BME280;39954;48.844;9.726;2022-09-09T15:52:56;95717.91;;;25.16;38.64
54038;BME280;39954;48.844;9.726;2022-09-09T15:53:59;95720.91;;;25.13;36.83
54038;BME280;39954;48.844;9.726;2022-09-09T15:55:04;95713.34;;;26.39;34.04
54038;BME280;39954;48.844;9.726;2022-09-09T15:56:10;95719.41;;;26.54;34.33
54038;BME280;39954;48.844;9.726;2022-09-09T15:57:13;95731.72;;;24.00;35.54
54038;BME280;39954;48.844;9.726;2022-09-09T15:58:17;95731.50;;;23.09;38.81
54038;BME280;39954;48.844;9.726;2022-09-09T15:59:20;95742.56;;;21.26;42.22
54038;BME280;39954;48.844;9.726;2022-09-09T16:00:25;95735.53;;;21.51;42.23
54038;BME280;39954;48.844;9.726;2022-09-09T16:01:27;95757.28;;;20.94;43.29
54038;BME280;39954;48.844;9.726;2022-09-09T16:02:35;95743.78;;;20.63;45.37
54038;BME280;39954;48.844;9.726;2022-09-09T16:03:41;95738.28;;;20.30;44.22
54038;BME280;39954;48.844;9.726;2022-09-09T16:04:46;95747.63;;;19.99;45.14
54038;BME280;39954;48.844;9.726;2022-09-09T16:05:51;95740.66;;;19.89;45.59
54038;BME280;39954;48.844;9.726;2022-09-09T16:06:54;95751.88;;;19.74;47.24
54038;BME280;39954;48.844;9.726;2022-09-09T16:08:00;95750.75;;;19.76;46.59
54038;BME280;39954;48.844;9.726;2022-09-09T16:09:07;95751.06;;;19.73;47.44
54038;BME280;39954;48.844;9.726;2022-09-09T16:10:11;95742.69;;;19.96;47.72
54038;BME280;39954;48.844;9.726;2022-09-09T16:11:16;95751.66;;;20.03;46.15
54038;BME280;39954;48.844;9.726;2022-09-09T16:12:21;95747.34;;;20.02;47.37
54038;BME280;39954;48.844;9.726;2022-09-09T16:13:27;95742.50;;;20.15;46.08
54038;BME280;39954;48.844;9.726;2022-09-09T16:14:29;95747.66;;;20.25;46.29
54038;BME280;39954;48.844;9.726;2022-09-09T16:15:37;95749.56;;;20.15;48.77
54038;BME280;39954;48.844;9.726;2022-09-09T16:16:39;95743.88;;;20.01;48.14
54038;BME280;39954;48.844;9.726;2022-09-09T16:17:46;95746.00;;;19.80;49.46
54038;BME280;39954;48.844;9.726;2022-09-09T16:18:50;95749.09;;;19.93;48.29
54038;BME280;39954;48.844;9.726;2022-09-09T16:19:55;95755.59;;;19.81;49.26
54038;BME280;39954;48.844;9.726;2022-09-09T16:20:59;95750.84;;;19.66;51.10
54038;BME280;39954;48.844;9.726;2022-09-09T16:22:02;95753.91;;;19.62;49.17
54038;BME280;39954;48.844;9.726;2022-09-09T16:23:08;95754.94;;;19.51;50.87
54038;BME280;39954;48.844;9.726;2022-09-09T16:24:12;95757.28;;;19.36;50.88
54038;BME280;39954;48.844;9.726;2022-09-09T16:25:17;95749.28;;;19.28;53.09
54038;BME280;39954;48.844;9.726;2022-09-09T16:26:20;95751.34;;;19.07;52.00
54038;BME280;39954;48.844;9.726;2022-09-09T16:27:25;95763.06;;;18.94;52.72
54038;BME280;39954;48.844;9.726;2022-09-09T16:28:27;95764.63;;;18.87;51.79
54038;BME280;39954;48.844;9.726;2022-09-09T16:29:32;95767.03;;;18.71;52.20
54038;BME280;39954;48.844;9.726;2022-09-09T16:30:37;95765.41;;;18.60;56.30
54038;BME280;39954;48.844;9.726;2022-09-09T16:31:41;95766.09;;;18.62;54.62
54038;BME280;39954;48.844;9.726;2022-09-09T16:32:48;95771.91;;;18.66;54.48
54038;BME280;39954;48.844;9.726;2022-09-09T16:33:51;95760.28;;;18.59;54.07
54038;BME280;39954;48.844;9.726;2022-09-09T16:34:56;95765.72;;;18.47;54.47
54038;BME280;39954;48.844;9.726;2022-09-09T16:35:58;95759.41;;;18.30;54.71
54038;BME280;39954;48.844;9.726;2022-09-09T16:37:03;95762.38;;;18.18;55.03
54038;BME280;39954;48.844;9.726;2022-09-09T16:38:07;95757.09;;;18.18;55.65
54038;BME280;39954;48.844;9.726;2022-09-09T16:39:11;95755.59;;;18.05;56.63
54038;BME280;39954;48.844;9.726;2022-09-09T16:40:16;95768.59;;;17.97;55.78
54038;BME280;39954;48.844;9.726;2022-09-09T16:41:19;95762.13;;;18.01;56.58
54038;BME280;39954;48.844;9.726;2022-09-09T16:42:23;95763.06;;;18.00;56.63
54038;BME280;39954;48.844;9.726;2022-09-09T16:43:25;95762.53;;;17.97;57.06
54038;BME280;39954;48.844;9.726;2022-09-09T16:44:30;95757.53;;;17.94;56.81
54038;BME280;39954;48.844;9.726;2022-09-09T16:45:41;95755.19;;;17.81;58.00
54038;BME280;39954;48.844;9.726;2022-09-09T16:46:44;95758.69;;;17.81;59.21
54038;BME280;39954;48.844;9.726;2022-09-09T16:47:53;95760.44;;;17.81;57.97
54038;BME280;39954;48.844;9.726;2022-09-09T16:48:56;95757.16;;;17.79;58.79
54038;BME280;39954;48.844;9.726;2022-09-09T16:50:01;95758.50;;;17.63;59.51
54038;BME280;39954;48.844;9.726;2022-09-09T16:51:05;95763.06;;;17.61;58.98
54038;BME280;39954;48.844;9.726;2022-09-09T16:52:10;95759.06;;;17.57;60.26
54038;BME280;39954;48.844;9.726;2022-09-09T16:53:21;95754.91;;;17.64;59.54
54038;BME280;39954;48.844;9.726;2022-09-09T16:54:23;95763.34;;;17.68;59.52
54038;BME280;39954;48.844;9.726;2022-09-09T16:55:29;95765.16;;;17.67;61.26
54038;BME280;39954;48.844;9.726;2022-09-09T16:56:33;95763.88;;;17.72;60.78
54038;BME280;39954;48.844;9.726;2022-09-09T16:57:38;95755.59;;;17.66;61.69
54038;BME280;39954;48.844;9.726;2022-09-09T16:58:41;95766.69;;;17.70;60.64
54038;BME280;39954;48.844;9.726;2022-09-09T16:59:46;95763.06;;;17.61;60.72
54038;BME280;39954;48.844;9.726;2022-09-09T17:00:57;95767.19;;;17.64;62.04
54038;BME280;39954;48.844;9.726;2022-09-09T17:01:59;95764.56;;;17.64;61.62
54038;BME280;39954;48.844;9.726;2022-09-09T17:03:11;95767.22;;;17.54;60.42
54038;BME280;39954;48.844;9.726;2022-09-09T17:04:16;95770.94;;;17.52;61.06
54038;BME280;39954;48.844;9.726;2022-09-09T17:05:22;95760.84;;;17.47;62.64
54038;BME280;39954;48.844;9.726;2022-09-09T17:06:24;95772.03;;;17.49;61.91
54038;BME280;39954;48.844;9.726;2022-09-09T17:07:30;95781.03;;;17.47;63.97
54038;BME280;39954;48.844;9.726;2022-09-09T17:08:34;95775.53;;;17.59;60.43
54038;BME280;39954;48.844;9.726;2022-09-09T17:09:38;95773.84;;;17.58;60.30
54038;BME280;39954;48.844;9.726;2022-09-09T17:10:43;95772.88;;;17.59;60.66
54038;BME280;39954;48.844;9.726;2022-09-09T17:11:46;95769.00;;;17.63;59.89
54038;BME280;39954;48.844;9.726;2022-09-09T17:12:52;95776.19;;;17.52;60.41
54038;BME280;39954;48.844;9.726;2022-09-09T17:13:56;95777.31;;;17.49;61.32
54038;BME280;39954;48.844;9.726;2022-09-09T17:15:02;95771.91;;;17.41;61.34
54038;BME280;39954;48.844;9.726;2022-09-09T17:16:05;95778.53;;;17.35;61.68
54038;BME280;39954;48.844;9.726;2022-09-09T17:17:10;95794.13;;;17.27;63.30
54038;BME280;39954;48.844;9.726;2022-09-09T17:18:35;95799.53;;;17.26;64.30
54038;BME280;39954;48.844;9.726;2022-09-09T17:19:40;95799.09;;;17.20;65.78
54038;BME280;39954;48.844;9.726;2022-09-09T17:20:45;95804.72;;;17.06;68.65
54038;BME280;39954;48.844;9.726;2022-09-09T17:21:48;95797.13;;;17.03;70.23
54038;BME280;39954;48.844;9.726;2022-09-09T17:23:12;95799.41;;;16.87;73.69
54038;BME280;39954;48.844;9.726;2022-09-09T17:24:17;95800.13;;;16.68;72.75
54038;BME280;39954;48.844;9.726;2022-09-09T17:25:23;95809.44;;;16.51;72.15
54038;BME280;39954;48.844;9.726;2022-09-09T17:26:27;95805.25;;;16.39;72.86
54038;BME280;39954;48.844;9.726;2022-09-09T17:27:33;95802.69;;;16.27;75.33
54038;BME280;39954;48.844;9.726;2022-09-09T17:28:38;95803.81;;;16.34;74.13
54038;BME280;39954;48.844;9.726;2022-09-09T17:29:43;95804.16;;;16.20;75.65
54038;BME280;39954;48.844;9.726;2022-09-09T17:30:51;95793.94;;;16.17;77.17
54038;BME280;39954;48.844;9.726;2022-09-09T17:31:54;95804.22;;;16.09;77.91
54038;BME280;39954;48.844;9.726;2022-09-09T17:32:59;95800.38;;;16.13;78.26
54038;BME280;39954;48.844;9.726;2022-09-09T17:34:04;95808.50;;;16.10;79.29
54038;BME280;39954;48.844;9.726;2022-09-09T17:35:09;95803.06;;;16.02;78.63
54038;BME280;39954;48.844;9.726;2022-09-09T17:36:13;95802.19;;;15.92;78.07
54038;BME280;39954;48.844;9.726;2022-09-09T17:37:19;95812.41;;;15.95;77.75
54038;BME280;39954;48.844;9.726;2022-09-09T17:38:21;95810.97;;;15.70;78.11
54038;BME280;39954;48.844;9.726;2022-09-09T17:39:29;95805.84;;;15.68;79.57
54038;BME280;39954;48.844;9.726;2022-09-09T17:40:34;95817.25;;;15.67;80.41
54038;BME280;39954;48.844;9.726;2022-09-09T17:41:37;95816.81;;;15.51;80.38
54038;BME280;39954;48.844;9.726;2022-09-09T17:42:42;95820.41;;;15.50;81.70
54038;BME280;39954;48.844;9.726;2022-09-09T17:43:44;95822.44;;;15.46;82.02
54038;BME280;39954;48.844;9.726;2022-09-09T17:44:49;95828.03;;;15.41;80.86
54038;BME280;39954;48.844;9.726;2022-09-09T17:45:51;95825.00;;;15.25;81.39
54038;BME280;39954;48.844;9.726;2022-09-09T17:46:56;95824.41;;;15.21;81.37
54038;BME280;39954;48.844;9.726;2022-09-09T17:48:01;95834.06;;;15.21;81.31
54038;BME280;39954;48.844;9.726;2022-09-09T17:49:08;95826.22;;;15.10;81.05
54038;BME280;39954;48.844;9.726;2022-09-09T17:50:13;95827.03;;;15.10;80.52
54038;BME280;39954;48.844;9.726;2022-09-09T17:51:21;95834.28;;;14.95;80.68
54038;BME280;39954;48.844;9.726;2022-09-09T17:52:26;95829.06;;;14.95;81.20
54038;BME280;39954;48.844;9.726;2022-09-09T17:53:36;95838.59;;;14.85;82.98
54038;BME280;39954;48.844;9.726;2022-09-09T17:54:39;95838.13;;;14.80;83.65
54038;BME280;39954;48.844;9.726;2022-09-09T17:55:44;95836.47;;;14.79;81.34
54038;BME280;39954;48.844;9.726;2022-09-09T17:56:51;95840.00;;;14.78;82.60
54038;BME280;39954;48.844;9.726;2022-09-09T17:57:56;95848.47;;;14.70;81.48
54038;BME280;39954;48.844;9.726;2022-09-09T17:58:59;95839.06;;;14.68;83.63
54038;BME280;39954;48.844;9.726;2022-09-09T18:00:06;95842.50;;;14.57;83.88
54038;BME280;39954;48.844;9.726;2022-09-09T18:01:13;95840.97;;;14.54;85.46
54038;BME280;39954;48.844;9.726;2022-09-09T18:02:16;95848.09;;;14.52;84.55
54038;BME280;39954;48.844;9.726;2022-09-09T18:03:21;95844.25;;;14.45;84.99
54038;BME280;39954;48.844;9.726;2022-09-09T18:04:25;95849.91;;;14.39;84.27
54038;BME280;39954;48.844;9.726;2022-09-09T18:05:30;95854.47;;;14.37;85.94
54038;BME280;39954;48.844;9.726;2022-09-09T18:06:35;95847.53;;;14.36;85.24
54038;BME280;39954;48.844;9.726;2022-09-09T18:07:40;95858.97;;;14.35;85.32
54038;BME280;39954;48.844;9.726;2022-09-09T18:08:47;95856.91;;;14.27;85.62
54038;BME280;39954;48.844;9.726;2022-09-09T18:09:50;95858.22;;;14.22;86.30
54038;BME280;39954;48.844;9.726;2022-09-09T18:10:55;95859.16;;;14.21;86.83
54038;BME280;39954;48.844;9.726;2022-09-09T18:11:57;95857.03;;;14.15;87.70
54038;BME280;39954;48.844;9.726;2022-09-09T18:13:03;95858.78;;;14.14;88.54
54038;BME280;39954;48.844;9.726;2022-09-09T18:14:05;95866.59;;;14.14;87.90
54038;BME280;39954;48.844;9.726;2022-09-09T18:15:11;95862.59;;;14.21;87.71
54038;BME280;39954;48.844;9.726;2022-09-09T18:16:31;95871.97;;;14.13;87.47
54038;BME280;39954;48.844;9.726;2022-09-09T18:17:36;95867.19;;;14.06;87.39
54038;BME280;39954;48.844;9.726;2022-09-09T18:18:41;95868.03;;;14.07;89.27
54038;BME280;39954;48.844;9.726;2022-09-09T18:19:45;95868.84;;;14.07;87.79
54038;BME280;39954;48.844;9.726;2022-09-09T18:20:57;95877.44;;;14.09;86.92
54038;BME280;39954;48.844;9.726;2022-09-09T18:22:00;95871.00;;;14.14;85.48
54038;BME280;39954;48.844;9.726;2022-09-09T18:23:05;95865.09;;;14.12;85.68
54038;BME280;39954;48.844;9.726;2022-09-09T18:24:08;95859.13;;;14.09;85.22
54038;BME280;39954;48.844;9.726;2022-09-09T18:25:13;95861.53;;;14.13;84.65